Time;durP1;ratioP1;P1;durP2;ratioP2;P2;SDS_P1;SDS_P2;PMS_P1;PMS_P2;Temp;Humidity;BMP_temperature;BMP_pressure;BME280_temperature;BME280_humidity;BME280_pressure;Samples;Min_cycle;Max_cycle;Signal;HPM_P1;HPM_P2
2022/04/08 00:00:28;;;;;;;25.50;16.17;;;;;;;12.15;100.00;98637.13;5133177;27;20208;-77
2022/04/08 00:02:54;;;;;;;18.85;13.90;;;;;;;12.20;100.00;98628.38;5126733;27;20201;-77
2022/04/08 00:05:22;;;;;;;22.35;14.63;;;;;;;12.18;100.00;98626.69;5126626;27;20200;-76
2022/04/08 00:07:49;;;;;;;21.92;14.73;;;;;;;12.05;100.00;98626.03;5125280;27;20221;-76
2022/04/08 00:10:16;;;;;;;20.35;13.70;;;;;;;12.17;100.00;98622.34;5101469;27;20188;-76
2022/04/08 00:12:44;;;;;;;21.42;15.40;;;;;;;12.11;100.00;98620.72;5134118;27;20192;-76
2022/04/08 00:15:11;;;;;;;21.50;14.07;;;;;;;12.26;100.00;98625.69;5123368;27;20197;-76
2022/04/08 00:17:38;;;;;;;21.50;14.00;;;;;;;12.04;100.00;98608.72;5077165;28;20198;-76
2022/04/08 00:20:05;;;;;;;22.83;14.20;;;;;;;12.09;100.00;98614.72;5127386;27;20200;-77
2022/04/08 00:22:39;;;;;;;18.48;14.38;;;;;;;12.14;100.00;98614.63;5097153;27;20257;-75
2022/04/08 00:25:06;;;;;;;22.48;13.63;;;;;;;12.05;100.00;98612.16;5133668;27;20201;-76
2022/04/08 00:27:33;;;;;;;19.73;13.13;;;;;;;12.01;100.00;98613.97;5119357;27;20220;-78
2022/04/08 00:30:00;;;;;;;23.90;15.52;;;;;;;11.83;100.00;98596.03;5113621;27;20210;-76
2022/04/08 00:32:27;;;;;;;18.35;12.82;;;;;;;12.02;100.00;98610.44;5131328;27;20188;-78
2022/04/08 00:34:54;;;;;;;13.45;9.55;;;;;;;11.96;100.00;98610.53;5121974;27;20225;-75
2022/04/08 00:37:21;;;;;;;19.20;11.88;;;;;;;11.93;100.00;98614.06;5113792;27;20201;-76
2022/04/08 00:39:50;;;;;;;12.55;9.48;;;;;;;11.92;100.00;98612.34;5129266;27;20199;-76
2022/04/08 00:42:16;;;;;;;11.18;8.38;;;;;;;11.84;100.00;98613.34;5133344;27;20193;-76
2022/04/08 00:44:43;;;;;;;12.00;9.82;;;;;;;11.79;100.00;98597.81;5129732;27;20204;-77
2022/04/08 00:47:11;;;;;;;12.80;8.93;;;;;;;11.94;100.00;98609.72;5113622;27;20225;-76
2022/04/08 00:49:38;;;;;;;15.45;10.52;;;;;;;11.91;100.00;98589.00;5112531;27;20193;-76
2022/04/08 00:52:06;;;;;;;15.13;10.23;;;;;;;12.05;100.00;98619.97;5113650;27;20250;-76
2022/04/08 00:54:33;;;;;;;12.15;10.35;;;;;;;12.07;100.00;98621.66;5125220;27;20194;-76
2022/04/08 00:57:03;;;;;;;15.20;11.18;;;;;;;11.93;100.00;98602.81;5112382;28;20232;-77
2022/04/08 00:59:30;;;;;;;12.13;9.68;;;;;;;12.01;100.00;98628.69;5122525;27;20265;-76
2022/04/08 01:01:57;;;;;;;14.25;9.93;;;;;;;11.92;100.00;98606.28;5117861;27;20197;-76
2022/04/08 01:04:27;;;;;;;17.48;8.90;;;;;;;11.95;100.00;98623.56;5111956;28;20198;-76
2022/04/08 01:06:54;;;;;;;12.60;9.38;;;;;;;11.90;100.00;98626.22;5112483;28;20225;-76
2022/04/08 01:09:22;;;;;;;14.68;9.65;;;;;;;11.88;100.00;98634.03;5106332;27;20198;-76
2022/04/08 01:11:49;;;;;;;15.02;9.65;;;;;;;11.71;100.00;98591.84;5123207;27;20680;-77
2022/04/08 01:14:17;;;;;;;12.35;8.10;;;;;;;11.99;100.00;98640.81;5132430;27;20204;-76
2022/04/08 01:16:45;;;;;;;15.52;10.43;;;;;;;11.87;100.00;98645.31;5129222;27;20194;-75
2022/04/08 01:19:11;;;;;;;14.80;8.30;;;;;;;11.64;100.00;98623.94;5123324;27;20257;-75
2022/04/08 01:21:38;;;;;;;12.10;8.65;;;;;;;11.81;100.00;98655.75;5130676;27;20195;-75
2022/04/08 01:24:12;;;;;;;12.18;9.07;;;;;;;11.85;100.00;98653.97;5132275;27;20265;-75
2022/04/08 01:26:40;;;;;;;12.38;8.95;;;;;;;11.68;100.00;98650.72;5132410;27;20288;-75
2022/04/08 01:29:07;;;;;;;11.15;7.93;;;;;;;11.82;100.00;98657.50;5127757;27;20243;-75
2022/04/08 01:31:34;;;;;;;7.43;6.55;;;;;;;11.76;100.00;98651.53;5132317;27;20209;-77
2022/04/08 01:34:01;;;;;;;13.77;8.85;;;;;;;11.78;100.00;98660.13;5130467;27;20211;-77
2022/04/08 01:36:28;;;;;;;8.77;7.88;;;;;;;11.54;100.00;98609.34;5131925;27;20196;-78
2022/04/08 01:38:55;;;;;;;12.57;8.10;;;;;;;11.69;100.00;98649.84;5118658;27;20194;-74
2022/04/08 01:41:21;;;;;;;12.27;8.18;;;;;;;11.77;100.00;98645.47;5112916;27;20228;-77
2022/04/08 01:43:49;;;;;;;10.40;8.48;;;;;;;11.76;100.00;98644.59;5131221;27;20196;-77
2022/04/08 01:46:16;;;;;;;12.02;8.65;;;;;;;11.75;100.00;98642.00;5096079;27;20193;-76
2022/04/08 01:48:43;;;;;;;17.95;10.15;;;;;;;11.59;100.00;98624.88;5095581;27;20228;-75
2022/04/08 01:51:10;;;;;;;12.98;9.02;;;;;;;11.73;100.00;98648.97;5117578;27;20205;-75
2022/04/08 01:53:37;;;;;;;18.95;13.00;;;;;;;11.73;100.00;98646.38;5117608;27;20241;-75
2022/04/08 01:56:03;;;;;;;17.15;13.07;;;;;;;11.60;100.00;98626.56;5128829;27;20221;-75
2022/04/08 01:58:30;;;;;;;12.90;9.80;;;;;;;11.51;100.00;98618.91;5124261;27;20205;-75
2022/04/08 02:00:58;;;;;;;7.10;5.00;;;;;;;11.72;100.00;98652.44;5129877;27;20239;-75
2022/04/08 02:03:25;;;;;;;16.60;9.13;;;;;;;11.58;100.00;98628.34;5119519;27;20204;-75
2022/04/08 02:05:52;;;;;;;7.68;6.20;;;;;;;11.70;100.00;98659.38;5111439;28;20197;-76
2022/04/08 02:08:19;;;;;;;9.75;6.90;;;;;;;11.70;100.00;98649.81;5112076;28;20232;-76
2022/04/08 02:10:46;;;;;;;8.88;6.22;;;;;;;11.71;100.00;98654.16;5111556;28;20205;-76
2022/04/08 02:13:13;;;;;;;14.60;8.93;;;;;;;11.67;100.00;98659.38;5112287;28;20201;-76
2022/04/08 02:15:39;;;;;;;12.38;8.35;;;;;;;11.64;100.00;98660.28;5111307;28;20202;-76
2022/04/08 02:18:08;;;;;;;12.93;10.27;;;;;;;11.67;100.00;98664.56;5125077;28;20209;-74
2022/04/08 02:20:35;;;;;;;15.70;10.02;;;;;;;11.71;100.00;98664.56;5121190;27;20285;-76
2022/04/08 02:23:04;;;;;;;9.07;6.35;;;;;;;11.69;100.00;98668.03;5111022;28;20197;-75
2022/04/08 02:25:31;;;;;;;14.88;9.32;;;;;;;11.55;100.00;98644.81;5110943;28;20209;-76
2022/04/08 02:27:59;;;;;;;9.07;7.25;;;;;;;11.42;100.00;98644.09;5110869;28;20689;-74
2022/04/08 02:30:26;;;;;;;9.23;8.02;;;;;;;11.59;100.00;98680.25;5111122;28;20220;-76
2022/04/08 02:32:53;;;;;;;13.00;7.93;;;;;;;11.58;100.00;98678.53;5118851;28;20193;-76
2022/04/08 02:35:21;;;;;;;11.70;7.82;;;;;;;11.47;100.00;98661.34;5130873;27;20261;-77
2022/04/08 02:37:48;;;;;;;10.88;6.18;;;;;;;11.51;100.00;98679.47;5115681;27;20258;-77
2022/04/08 02:40:14;;;;;;;11.18;8.02;;;;;;;11.47;100.00;98675.19;5110582;28;20246;-75
2022/04/08 02:42:41;;;;;;;14.35;7.85;;;;;;;11.45;100.00;98689.91;5124835;27;20264;-75
2022/04/08 02:45:09;;;;;;;21.35;15.70;;;;;;;11.43;100.00;98671.78;5134663;27;20200;-75
2022/04/08 02:47:41;;;;;;;11.90;8.27;;;;;;;11.32;100.00;98650.28;5134873;27;20216;-75
2022/04/08 02:50:08;;;;;;;9.90;6.55;;;;;;;11.26;100.00;98665.91;5127232;27;20245;-76
2022/04/08 02:52:37;;;;;;;12.80;7.53;;;;;;;11.44;100.00;98689.06;5115693;27;20942;-75
2022/04/08 02:55:04;;;;;;;8.07;5.68;;;;;;;11.44;100.00;98706.38;5133137;27;20189;-76
2022/04/08 02:57:31;;;;;;;14.82;7.95;;;;;;;11.42;100.00;98711.56;5117731;27;20787;-75
2022/04/08 02:59:59;;;;;;;9.55;7.43;;;;;;;11.17;100.00;98672.91;5114803;28;20201;-76
2022/04/08 03:02:26;;;;;;;9.55;6.63;;;;;;;11.24;100.00;98680.63;5132958;27;20257;-75
2022/04/08 03:04:53;;;;;;;10.93;7.05;;;;;;;11.34;100.00;98707.34;5098898;27;20238;-75
2022/04/08 03:07:20;;;;;;;10.33;7.70;;;;;;;11.02;100.00;98619.50;5133968;27;20436;-74
2022/04/08 03:09:48;;;;;;;9.30;7.95;;;;;;;11.48;100.00;98709.78;5114320;27;20807;-75
2022/04/08 03:12:15;;;;;;;10.82;7.47;;;;;;;11.49;100.00;98714.09;5117780;27;20197;-73
2022/04/08 03:14:42;;;;;;;12.65;6.38;;;;;;;11.48;100.00;98712.41;5121659;27;20208;-75
2022/04/08 03:17:08;;;;;;;6.85;6.15;;;;;;;11.37;100.00;98718.56;5116900;27;20201;-76
2022/04/08 03:19:35;;;;;;;12.73;8.00;;;;;;;11.38;100.00;98715.06;5114295;28;20201;-75
2022/04/08 03:22:02;;;;;;;11.43;8.30;;;;;;;11.40;100.00;98707.28;5132155;27;20448;-76
2022/04/08 03:24:30;;;;;;;6.75;6.07;;;;;;;11.58;100.00;98734.78;5134432;27;20205;-76
2022/04/08 03:26:58;;;;;;;11.77;7.15;;;;;;;11.45;100.00;98740.06;5134016;27;20220;-76
2022/04/08 03:29:25;;;;;;;8.95;6.05;;;;;;;11.36;100.00;98734.13;5132592;27;20232;-77
2022/04/08 03:31:52;;;;;;;9.00;6.72;;;;;;;11.33;100.00;98734.16;5134811;27;20664;-76
2022/04/08 03:34:19;;;;;;;6.43;5.82;;;;;;;11.26;100.00;98741.16;5114995;27;20726;-77
2022/04/08 03:36:47;;;;;;;8.02;5.00;;;;;;;11.34;100.00;98739.31;5132300;27;20197;-75
2022/04/08 03:39:14;;;;;;;9.18;6.15;;;;;;;11.48;100.00;98761.72;5133865;27;20209;-75
2022/04/08 03:41:41;;;;;;;13.43;10.50;;;;;;;11.34;100.00;98748.88;5130812;27;20185;-76
2022/04/08 03:44:10;;;;;;;7.30;6.50;;;;;;;11.48;100.00;98761.72;5132587;27;20192;-76
2022/04/08 03:46:36;;;;;;;7.03;6.32;;;;;;;11.35;100.00;98763.53;5134063;27;20196;-77
2022/04/08 03:49:04;;;;;;;9.07;6.45;;;;;;;11.40;100.00;98774.75;5116808;27;20225;-75
2022/04/08 03:51:31;;;;;;;9.35;6.40;;;;;;;11.43;100.00;98778.19;5112137;27;20197;-73
2022/04/08 03:53:58;;;;;;;7.45;6.05;;;;;;;11.30;100.00;98784.38;5116003;27;20205;-75
2022/04/08 03:56:25;;;;;;;8.00;5.70;;;;;;;11.32;100.00;98782.59;5130253;27;20233;-76
2022/04/08 03:58:51;;;;;;;11.10;6.18;;;;;;;11.37;100.00;98786.03;5119080;27;20207;-76
2022/04/08 04:01:20;;;;;;;10.23;5.88;;;;;;;11.26;100.00;98761.91;5133823;27;20204;-75
2022/04/08 04:03:46;;;;;;;8.05;6.30;;;;;;;11.32;100.00;98787.78;5097573;27;20291;-76
2022/04/08 04:06:13;;;;;;;7.70;5.65;;;;;;;11.29;100.00;98786.97;5133646;27;20197;-77
2022/04/08 04:08:40;;;;;;;7.75;6.05;;;;;;;11.11;100.00;98761.16;5110426;28;20666;-77
2022/04/08 04:11:06;;;;;;;10.75;6.25;;;;;;;11.38;100.00;98800.69;5113140;28;20620;-77
2022/04/08 04:13:33;;;;;;;7.65;5.85;;;;;;;11.32;100.00;98808.53;5089773;27;20668;-76
2022/04/08 04:16:00;;;;;;;10.00;5.35;;;;;;;11.47;100.00;98812.75;5095408;27;20632;-76
2022/04/08 04:18:28;;;;;;;11.30;6.53;;;;;;;11.81;100.00;98808.97;5132966;27;20296;-77
2022/04/08 04:20:55;;;;;;;8.68;5.55;;;;;;;12.02;100.00;98820.84;5080908;28;20197;-77
2022/04/08 04:23:22;;;;;;;8.40;6.53;;;;;;;12.28;100.00;98830.94;5089860;27;20220;-78
2022/04/08 04:25:49;;;;;;;6.35;5.63;;;;;;;12.36;100.00;98831.72;5133746;27;20189;-77
2022/04/08 04:28:16;;;;;;;4.82;4.13;;;;;;;12.25;100.00;98805.88;5131496;27;20220;-75
2022/04/08 04:30:43;;;;;;;6.15;5.05;;;;;;;12.62;100.00;98826.22;5117152;27;20197;-77
2022/04/08 04:33:10;;;;;;;16.95;5.97;;;;;;;12.73;100.00;98829.53;5121418;27;20212;-75
2022/04/08 04:35:39;;;;;;;7.63;4.63;;;;;;;13.02;100.00;98853.34;5112542;27;20197;-75
2022/04/08 04:38:06;;;;;;;5.20;4.18;;;;;;;13.11;100.00;98858.47;5112900;27;20208;-77
2022/04/08 04:40:33;;;;;;;6.70;4.05;;;;;;;13.46;100.00;98859.66;5116539;27;20196;-74
2022/04/08 04:43:00;;;;;;;8.45;5.55;;;;;;;13.53;100.00;98869.09;5131734;27;20200;-78
2022/04/08 04:45:27;;;;;;;8.15;3.97;;;;;;;13.67;100.00;98874.94;5132442;27;20200;-77
2022/04/08 04:47:54;;;;;;;5.72;4.93;;;;;;;13.96;100.00;98877.91;5121184;27;20263;-78
2022/04/08 04:50:20;;;;;;;4.85;3.90;;;;;;;13.85;100.00;98869.41;5125636;27;20205;-76
2022/04/08 04:52:48;;;;;;;10.57;5.32;;;;;;;14.01;100.00;98896.94;5127120;27;20665;-75
2022/04/08 04:55:15;;;;;;;8.68;4.28;;;;;;;14.03;100.00;98895.16;5132618;27;20216;-75
2022/04/08 04:57:42;;;;;;;6.60;4.13;;;;;;;14.21;100.00;98894.81;5126921;27;20225;-77
2022/04/08 05:00:10;;;;;;;4.95;4.22;;;;;;;14.66;100.00;98897.47;5105951;27;20673;-76
2022/04/08 05:02:37;;;;;;;4.25;3.85;;;;;;;14.56;100.00;98890.69;5120377;27;20251;-77
2022/04/08 05:05:06;;;;;;;8.73;5.03;;;;;;;14.13;100.00;98873.22;5111959;27;20185;-81
2022/04/08 05:07:33;;;;;;;6.97;3.92;;;;;;;14.22;100.00;98885.25;5112174;28;20276;-79
2022/04/08 05:10:01;;;;;;;4.82;4.32;;;;;;;14.01;100.00;98894.31;5112251;28;20278;-75
2022/04/08 05:12:28;;;;;;;6.40;4.57;;;;;;;13.72;100.00;98889.63;5112083;27;20707;-75
2022/04/08 05:14:55;;;;;;;4.85;3.30;;;;;;;13.35;100.00;98885.88;5112985;27;20557;-73
2022/04/08 05:17:22;;;;;;;4.53;4.07;;;;;;;13.00;100.00;98888.97;5116635;27;20830;-75
2022/04/08 05:19:48;;;;;;;8.68;3.92;;;;;;;12.99;100.00;98902.84;5130805;27;20193;-75
2022/04/08 05:22:16;;;;;;;5.40;3.60;;;;;;;13.10;100.00;98903.59;5118615;27;20198;-74
2022/04/08 05:24:44;;;;;;;4.50;3.22;;;;;;;12.99;100.00;98902.84;5111921;28;20650;-73
2022/04/08 05:27:12;;;;;;;8.13;4.05;;;;;;;13.28;100.00;98918.06;5111605;28;20193;-74
2022/04/08 05:29:38;;;;;;;5.70;5.07;;;;;;;13.31;100.00;98921.50;5111628;28;20243;-75
2022/04/08 05:32:07;;;;;;;4.88;4.15;;;;;;;13.39;100.00;98930.06;5087940;27;20669;-75
2022/04/08 05:34:33;;;;;;;9.85;5.38;;;;;;;13.30;100.00;98926.75;5131917;27;20204;-75
2022/04/08 05:37:00;;;;;;;3.60;2.95;;;;;;;13.34;100.00;98931.88;5131800;27;20212;-74
2022/04/08 05:39:27;;;;;;;4.75;3.80;;;;;;;13.26;100.00;98915.53;5119820;27;20201;-74
2022/04/08 05:41:54;;;;;;;9.45;5.07;;;;;;;13.45;100.00;98934.31;5111592;28;20190;-76
2022/04/08 05:44:22;;;;;;;4.45;4.05;;;;;;;13.56;100.00;98939.34;5111204;28;20228;-76
2022/04/08 05:46:49;;;;;;;5.82;4.40;;;;;;;13.52;100.00;98948.13;5126334;27;20212;-76
2022/04/08 05:49:17;;;;;;;5.03;3.72;;;;;;;13.44;100.00;98916.13;5132008;27;20726;-76
2022/04/08 05:51:45;;;;;;;7.60;5.25;;;;;;;13.56;100.00;98918.50;5123005;27;20282;-73
2022/04/08 05:54:12;;;;;;;3.33;3.10;;;;;;;13.78;100.00;98945.94;5111012;28;20201;-75
2022/04/08 05:56:39;;;;;;;10.25;4.05;;;;;;;13.88;100.00;98942.31;5103245;28;20225;-76
2022/04/08 05:59:06;;;;;;;5.72;3.00;;;;;;;13.97;100.00;98968.22;5110983;28;20201;-74
2022/04/08 06:01:35;;;;;;;4.00;3.08;;;;;;;14.11;100.00;98976.66;5075447;28;20205;-75
2022/04/08 06:04:02;;;;;;;3.42;3.22;;;;;;;14.19;100.00;98981.75;5111012;28;20254;-75
2022/04/08 06:06:28;;;;;;;4.30;3.83;;;;;;;14.29;100.00;98985.94;5110625;28;20193;-76
2022/04/08 06:08:55;;;;;;;6.78;3.88;;;;;;;14.30;100.00;98977.22;5074647;28;20229;-76
2022/04/08 06:11:22;;;;;;;6.70;4.28;;;;;;;13.82;100.00;98890.31;5074666;28;20213;-76
2022/04/08 06:13:49;;;;;;;7.18;4.78;;;;;;;14.43;100.00;98986.56;5131093;27;20205;-76
2022/04/08 06:16:15;;;;;;;6.88;6.10;;;;;;;14.58;100.00;98993.25;5126679;27;20209;-75
2022/04/08 06:18:44;;;;;;;11.02;5.78;;;;;;;14.79;100.00;99005.91;5124746;28;20208;-76
2022/04/08 06:21:10;;;;;;;8.13;4.18;;;;;;;14.91;100.00;98992.59;5127808;27;20204;-76
2022/04/08 06:23:37;;;;;;;9.32;4.32;;;;;;;14.90;100.00;99017.00;5119267;28;20633;-76
2022/04/08 06:26:04;;;;;;;12.88;4.90;;;;;;;15.10;100.00;99012.22;5110820;28;20472;-77
2022/04/08 06:28:31;;;;;;;4.22;3.53;;;;;;;15.18;100.00;99031.22;5115690;28;20584;-76
2022/04/08 06:30:57;;;;;;;6.95;3.28;;;;;;;15.08;100.00;99016.63;5129937;27;20256;-73
2022/04/08 06:33:24;;;;;;;4.60;3.78;;;;;;;15.25;100.00;99035.41;5129717;27;20680;-75
2022/04/08 06:35:52;;;;;;;8.55;3.72;;;;;;;15.34;100.00;99044.78;5121238;27;20681;-76
2022/04/08 06:38:19;;;;;;;7.68;3.97;;;;;;;15.44;100.00;99050.72;5085076;28;20216;-77
2022/04/08 06:40:46;;;;;;;4.38;3.03;;;;;;;15.36;100.00;99041.28;5094550;28;20740;-76
2022/04/08 06:43:12;;;;;;;3.55;2.97;;;;;;;14.96;100.00;98969.88;5128733;27;20200;-84
2022/04/08 06:45:39;;;;;;;4.80;3.90;;;;;;;15.54;100.00;99057.47;5112533;28;20209;-81
2022/04/08 06:48:06;;;;;;;3.35;2.70;;;;;;;15.59;100.00;99058.25;5111015;28;20201;-84
2022/04/08 06:50:34;;;;;;;6.53;3.60;;;;;;;15.74;100.00;99063.13;5116985;28;20228;-85
2022/04/08 06:53:03;;;;;;;5.80;4.25;;;;;;;15.90;100.00;99059.28;5096562;28;20265;-87
2022/04/08 06:55:29;;;;;;;3.88;3.15;;;;;;;15.89;100.00;99054.94;5113711;28;20250;-82
2022/04/08 06:57:58;;;;;;;5.90;3.53;;;;;;;15.98;100.00;99048.66;5116863;27;20225;-86
2022/04/08 07:00:25;;;;;;;3.85;3.55;;;;;;;16.33;100.00;99069.59;5093305;28;20213;-77
2022/04/08 07:02:52;;;;;;;8.38;3.50;;;;;;;16.03;100.00;99047.66;5115811;27;20198;-78
2022/04/08 07:05:18;;;;;;;4.35;2.72;;;;;;;16.30;100.00;99083.59;5112062;27;20220;-79
2022/04/08 07:07:46;;;;;;;8.82;3.58;;;;;;;16.45;97.68;99053.56;5112138;28;20205;-78
2022/04/08 07:10:15;;;;;;;3.40;2.97;;;;;;;16.58;96.49;99069.88;5120076;27;20311;-78
2022/04/08 07:12:41;;;;;;;3.20;2.90;;;;;;;16.46;93.25;99089.31;5131523;27;20600;-80
2022/04/08 07:15:09;;;;;;;4.88;3.38;;;;;;;16.42;92.14;99081.56;5120906;27;20202;-77
2022/04/08 07:17:37;;;;;;;12.30;5.25;;;;;;;16.70;94.81;99073.03;5075346;28;20711;-77
2022/04/08 07:20:05;;;;;;;5.90;3.20;;;;;;;16.65;88.58;99084.53;5124928;28;20194;-78
2022/04/08 07:22:32;;;;;;;8.15;4.53;;;;;;;16.55;87.16;99080.41;5113666;28;20197;-77
2022/04/08 07:24:59;;;;;;;6.13;4.68;;;;;;;16.70;89.25;99093.97;5090724;28;20212;-78
2022/04/08 07:27:27;;;;;;;8.07;4.30;;;;;;;16.77;90.50;99092.03;5111555;28;20192;-77
2022/04/08 07:29:54;;;;;;;9.15;6.85;;;;;;;16.71;89.71;99100.06;5133962;27;20224;-80
2022/04/08 07:32:21;;;;;;;2.50;2.30;;;;;;;16.73;88.96;99099.13;5127239;27;20212;-80
2022/04/08 07:34:50;;;;;;;3.90;3.05;;;;;;;16.83;88.25;99126.81;5130588;27;20280;-78
2022/04/08 07:37:27;;;;;;;5.22;4.30;;;;;;;17.08;88.11;99116.56;5113791;28;20288;-77
2022/04/08 07:39:54;;;;;;;13.73;3.17;;;;;;;17.05;84.90;99124.47;5115952;27;20205;-78
2022/04/08 07:42:20;;;;;;;6.82;3.15;;;;;;;17.10;84.13;99137.44;5114015;28;20254;-81
2022/04/08 07:44:49;;;;;;;5.10;3.60;;;;;;;17.27;83.37;99123.00;5120393;27;20209;-77
2022/04/08 07:47:15;;;;;;;3.42;3.13;;;;;;;17.09;85.28;99120.88;5112756;28;20198;-77
2022/04/08 07:49:42;;;;;;;12.82;4.38;;;;;;;17.12;87.16;99128.63;5113860;27;20221;-78
2022/04/08 07:52:09;;;;;;;3.33;2.83;;;;;;;17.09;86.92;99128.72;5111558;27;20232;-79
2022/04/08 07:54:36;;;;;;;4.13;2.92;;;;;;;17.19;85.71;99129.34;5112504;28;20208;-79
2022/04/08 07:57:03;;;;;;;4.30;3.72;;;;;;;17.22;86.61;99124.91;5115256;27;20218;-78
2022/04/08 07:59:30;;;;;;;7.40;4.47;;;;;;;17.30;87.30;99122.91;5130012;27;20883;-78
2022/04/08 08:01:58;;;;;;;5.78;3.83;;;;;;;17.53;86.88;99130.13;5119208;27;20631;-78
2022/04/08 08:04:25;;;;;;;4.45;3.53;;;;;;;17.67;87.06;99129.75;5134055;27;20209;-78
2022/04/08 08:06:51;;;;;;;4.78;3.60;;;;;;;17.68;84.63;99139.34;5134049;27;20199;-80
2022/04/08 08:09:18;;;;;;;4.18;3.85;;;;;;;17.85;82.37;99137.09;5129988;27;20630;-78
2022/04/08 08:11:45;;;;;;;5.60;4.05;;;;;;;17.63;81.13;99115.03;5129139;27;20191;-75
2022/04/08 08:14:12;;;;;;;5.28;4.25;;;;;;;17.92;82.59;99153.50;5118647;27;20288;-80
2022/04/08 08:16:38;;;;;;;8.13;4.00;;;;;;;17.89;83.35;99136.09;5133654;27;20188;-79
2022/04/08 08:19:07;;;;;;;9.32;3.70;;;;;;;18.19;81.18;99152.69;5124391;27;20671;-78
2022/04/08 08:21:33;;;;;;;6.43;2.80;;;;;;;18.00;74.73;99160.25;5125605;27;20212;-78
2022/04/08 08:24:00;;;;;;;4.10;2.88;;;;;;;18.17;73.02;99162.38;5133899;27;20200;-78
2022/04/08 08:26:27;;;;;;;8.63;3.40;;;;;;;18.27;72.89;99162.03;5113501;27;20201;-78
2022/04/08 08:28:54;;;;;;;2.97;2.78;;;;;;;18.44;71.86;99168.53;5116237;27;20216;-78
2022/04/08 08:31:20;;;;;;;5.45;2.70;;;;;;;18.59;69.11;99173.31;5121043;27;20205;-78
2022/04/08 08:33:47;;;;;;;6.85;2.47;;;;;;;18.34;66.77;99173.19;5112930;27;20372;-78
2022/04/08 08:36:15;;;;;;;3.10;2.60;;;;;;;18.66;67.75;99174.84;5119744;27;20258;-77
2022/04/08 08:38:42;;;;;;;5.80;2.50;;;;;;;18.77;67.13;99178.84;5092764;27;20570;-76
2022/04/08 08:41:10;;;;;;;3.25;2.92;;;;;;;18.78;64.25;99180.56;5093027;27;20205;-78
2022/04/08 08:43:37;;;;;;;1.88;1.77;;;;;;;18.56;63.73;99165.53;5117662;27;20202;-77
2022/04/08 08:46:06;;;;;;;4.28;2.75;;;;;;;18.92;64.41;99180.09;5112066;28;20197;-78
2022/04/08 08:48:35;;;;;;;9.80;2.90;;;;;;;19.14;63.69;99178.47;5118480;27;20607;-76
2022/04/08 08:51:03;;;;;;;2.22;2.13;;;;;;;19.15;61.85;99164.44;5128850;27;20289;-79
2022/04/08 08:53:33;;;;;;;3.40;2.60;;;;;;;19.18;58.70;99169.59;5130343;27;20200;-77
2022/04/08 08:56:00;;;;;;;5.70;2.38;;;;;;;19.11;57.10;99157.56;5112559;27;20270;-76
2022/04/08 08:58:29;;;;;;;5.68;4.60;;;;;;;19.04;55.72;99165.72;5114849;27;20244;-76
2022/04/08 09:00:55;;;;;;;69.75;35.42;;;;;;;19.22;56.51;99176.47;5132056;27;20630;-78
2022/04/08 09:03:28;;;;;;;4.85;2.45;;;;;;;19.25;56.26;99165.84;5132737;27;20615;-77
2022/04/08 09:05:55;;;;;;;3.72;2.28;;;;;;;19.42;56.62;99177.56;5132869;27;20219;-77
2022/04/08 09:08:22;;;;;;;2.30;2.13;;;;;;;19.41;56.98;99181.06;5131256;27;20216;-77
2022/04/08 09:10:51;;;;;;;4.75;2.10;;;;;;;19.44;54.95;99178.38;5115435;28;20224;-78
2022/04/08 09:13:20;;;;;;;2.88;2.15;;;;;;;19.33;55.35;99181.34;5118491;27;20204;-76
2022/04/08 09:15:53;;;;;;;2.67;2.42;;;;;;;19.33;54.47;99167.34;5132514;27;20208;-76
2022/04/08 09:18:20;;;;;;;4.22;2.85;;;;;;;19.49;54.14;99179.06;5131983;27;20205;-78
2022/04/08 09:20:49;;;;;;;3.72;2.15;;;;;;;19.66;54.09;99180.16;5112030;27;20189;-75
2022/04/08 09:23:20;;;;;;;3.63;2.95;;;;;;;19.85;52.23;99182.97;5112331;28;20293;-77
2022/04/08 09:25:48;;;;;;;3.20;2.70;;;;;;;19.79;51.47;99162.19;5111772;28;20209;-77
2022/04/08 09:28:18;;;;;;;2.45;1.88;;;;;;;19.90;51.82;99161.78;5111871;28;20228;-74
2022/04/08 09:30:49;;;;;;;4.45;2.35;;;;;;;19.91;49.38;99177.47;5111324;28;20228;-80
2022/04/08 09:33:18;;;;;;;3.08;2.53;;;;;;;19.83;49.32;99169.03;5112033;28;20221;-80
2022/04/08 09:35:46;;;;;;;3.55;2.10;;;;;;;19.88;50.40;99151.28;5111970;28;20700;-78
2022/04/08 09:38:19;;;;;;;2.75;2.55;;;;;;;19.93;49.61;99182.69;5112147;28;20251;-82
2022/04/08 09:40:47;;;;;;;1.92;1.83;;;;;;;19.97;48.20;99184.31;5111854;28;20652;-81
2022/04/08 09:43:16;;;;;;;6.05;3.03;;;;;;;20.20;47.50;99179.00;5111092;27;20221;-81
2022/04/08 09:45:44;;;;;;;2.42;2.28;;;;;;;20.31;45.97;99183.91;5111400;28;20254;-82
2022/04/08 09:48:11;;;;;;;2.40;2.20;;;;;;;20.26;45.98;99182.25;5111544;28;20197;-82
2022/04/08 09:50:40;;;;;;;4.55;2.38;;;;;;;20.33;44.79;99192.63;5092356;28;20301;-79
2022/04/08 09:53:07;;;;;;;6.32;2.33;;;;;;;20.41;44.59;99186.13;5111139;28;20194;-80
2022/04/08 09:55:36;;;;;;;6.05;1.70;;;;;;;20.59;44.49;99184.53;5111188;28;20194;-78
2022/04/08 09:58:05;;;;;;;3.33;1.67;;;;;;;20.33;44.26;99185.59;5110948;28;20229;-81
2022/04/08 10:00:34;;;;;;;2.83;1.70;;;;;;;20.46;44.54;99194.69;5110982;28;20629;-80
2022/04/08 10:03:01;;;;;;;4.22;1.80;;;;;;;20.40;44.00;99189.69;5075221;28;20197;-80
2022/04/08 10:05:29;;;;;;;1.80;1.65;;;;;;;20.16;43.32;99157.22;5111077;28;20205;-79
2022/04/08 10:07:57;;;;;;;9.45;2.17;;;;;;;20.35;43.50;99177.59;5110811;28;20596;-80
2022/04/08 10:10:28;;;;;;;2.22;2.05;;;;;;;20.31;43.97;99176.88;5110706;28;20213;-80
2022/04/08 10:13:25;;;;;;;4.57;2.15;;;;;;;20.50;43.84;99192.81;5111303;28;20647;-79
2022/04/08 10:16:09;;;;;;;2.85;1.98;;;;;;;20.33;43.68;99168.91;5048744;28;20202;-79
2022/04/08 10:18:37;;;;;;;2.50;2.30;;;;;;;20.05;43.75;99135.72;5048434;28;20600;-79
2022/04/08 10:21:04;;;;;;;2.75;2.53;;;;;;;20.33;44.08;99175.03;5048676;28;20778;-77
2022/04/08 10:23:38;;;;;;;3.80;1.95;;;;;;;20.30;43.62;99196.19;5048291;28;20196;-78
2022/04/08 10:26:06;;;;;;;3.03;2.28;;;;;;;20.35;44.54;99188.13;5048052;28;20301;-75
2022/04/08 10:28:36;;;;;;;2.45;1.95;;;;;;;20.40;45.11;99196.72;5048176;28;20723;-77
2022/04/08 10:31:15;;;;;;;4.65;2.60;;;;;;;20.50;45.71;99211.25;5048205;28;20263;-78
2022/04/08 10:33:50;;;;;;;1.90;1.80;;;;;;;20.43;45.78;99218.53;5047935;28;20301;-76
2022/04/08 10:36:17;;;;;;;3.13;2.25;;;;;;;20.48;46.21;99215.69;5048051;28;20195;-76
2022/04/08 10:38:44;;;;;;;5.95;1.92;;;;;;;20.55;46.15;99215.41;4998257;28;20330;-75
2022/04/08 10:41:11;;;;;;;2.20;2.00;;;;;;;20.47;45.98;99216.63;5047556;28;20191;-77
2022/04/08 10:43:46;;;;;;;2.22;2.13;;;;;;;20.61;46.04;99225.72;5047404;28;20696;-76
2022/04/08 10:46:27;;;;;;;1.95;1.85;;;;;;;20.70;46.62;99219.22;5047385;28;20294;-79
2022/04/08 10:48:56;;;;;;;2.28;1.85;;;;;;;20.75;47.88;99220.75;5047184;28;20593;-78
2022/04/08 10:51:23;;;;;;;2.10;2.00;;;;;;;20.75;46.91;99210.22;5047371;28;20238;-80
2022/04/08 10:53:51;;;;;;;4.50;2.53;;;;;;;20.66;46.48;99226.38;5103604;28;20696;-80
2022/04/08 10:56:18;;;;;;;5.78;2.17;;;;;;;20.52;45.61;99222.56;5110212;28;20688;-78
2022/04/08 10:58:46;;;;;;;2.42;2.22;;;;;;;20.42;47.14;99205.41;5110383;28;20205;-79
2022/04/08 11:01:19;;;;;;;3.95;2.55;;;;;;;20.70;46.77;99221.84;5110456;28;20208;-81
2022/04/08 11:03:53;;;;;;;2.97;2.13;;;;;;;20.64;46.68;99206.28;5111802;28;20704;-80
2022/04/08 11:06:20;;;;;;;6.00;2.65;;;;;;;20.88;47.29;99236.06;5114406;28;20235;-79
2022/04/08 11:08:46;;;;;;;4.65;2.85;;;;;;;20.77;47.28;99191.69;5113968;28;20222;-81
2022/04/08 11:11:14;;;;;;;6.32;2.15;;;;;;;20.80;47.06;99196.84;5114099;28;20295;-80
2022/04/08 11:13:42;;;;;;;4.07;2.20;;;;;;;20.73;46.41;99205.91;5113930;28;20198;-81
2022/04/08 11:16:08;;;;;;;2.60;1.98;;;;;;;20.86;46.89;99212.41;5113840;28;20189;-79
2022/04/08 11:18:37;;;;;;;3.33;2.22;;;;;;;20.90;46.82;99216.66;5114073;28;20779;-79
2022/04/08 11:21:03;;;;;;;5.55;2.05;;;;;;;20.81;46.38;99214.38;5113779;28;20247;-80
2022/04/08 11:23:32;;;;;;;7.53;2.30;;;;;;;20.86;45.81;99220.31;5113884;28;20251;-80
2022/04/08 11:25:59;;;;;;;14.27;2.83;;;;;;;20.91;46.23;99209.56;5113996;28;20288;-81